createdAt,value
2023-02-16T00:00:33.758Z,17.76
2023-02-16T00:03:00.243Z,17.76
2023-02-16T00:05:34.747Z,17.72
2023-02-16T00:08:01.436Z,17.69
2023-02-16T00:10:31.402Z,17.66
2023-02-16T00:13:16.569Z,17.64
2023-02-16T00:15:43.408Z,17.62
2023-02-16T00:18:16.225Z,17.59
2023-02-16T00:20:42.821Z,17.56
2023-02-16T00:23:09.204Z,17.54
2023-02-16T00:25:35.771Z,17.50
2023-02-16T00:28:08.083Z,17.49
2023-02-16T00:30:34.528Z,17.48
2023-02-16T00:33:01.314Z,17.46
2023-02-16T00:35:28.212Z,17.46
2023-02-16T00:37:54.608Z,17.39
2023-02-16T00:40:21.073Z,17.42
2023-02-16T00:42:47.745Z,17.41
2023-02-16T00:45:24.582Z,17.40
2023-02-16T00:47:51.794Z,17.38
2023-02-16T00:50:18.244Z,17.38
2023-02-16T00:52:48.484Z,17.38
2023-02-16T00:55:17.139Z,17.37
2023-02-16T00:57:49.692Z,17.36
2023-02-16T01:00:27.379Z,17.35
2023-02-16T01:02:55.541Z,17.33
2023-02-16T01:05:22.284Z,17.34
2023-02-16T01:08:07.460Z,17.34
2023-02-16T01:11:07.415Z,17.32
2023-02-16T01:13:39.771Z,17.31
2023-02-16T01:16:10.472Z,17.29
2023-02-16T01:18:36.886Z,17.26
2023-02-16T01:21:03.535Z,17.25
2023-02-16T01:23:30.158Z,17.23
2023-02-16T01:25:56.896Z,17.22
2023-02-16T01:28:24.183Z,17.23
2023-02-16T01:30:51.696Z,17.21
2023-02-16T01:33:18.710Z,17.20
2023-02-16T01:35:45.521Z,17.18
2023-02-16T01:38:19.509Z,17.16
2023-02-16T01:41:05.710Z,17.16
2023-02-16T01:43:46.634Z,17.12
2023-02-16T01:46:33.363Z,17.12
2023-02-16T01:49:00.094Z,17.10
2023-02-16T01:51:28.415Z,17.06
2023-02-16T01:54:07.545Z,17.08
2023-02-16T01:56:42.010Z,17.05
2023-02-16T01:59:28.652Z,17.05
2023-02-16T02:01:56.715Z,17.04
2023-02-16T02:05:02.057Z,17.08
2023-02-16T02:07:31.927Z,17.10
2023-02-16T02:10:14.068Z,17.09
2023-02-16T02:12:47.317Z,17.07
2023-02-16T02:15:16.929Z,17.06
2023-02-16T02:17:43.346Z,17.06
2023-02-16T02:20:09.712Z,17.07
2023-02-16T02:23:13.904Z,17.04
2023-02-16T02:26:15.567Z,17.02
2023-02-16T02:28:42.378Z,17.00
2023-02-16T02:31:20.506Z,16.99
2023-02-16T02:33:56.360Z,16.98
2023-02-16T02:36:22.757Z,16.98
2023-02-16T02:38:52.103Z,16.96
2023-02-16T02:41:45.555Z,16.95
2023-02-16T02:44:12.946Z,16.94
2023-02-16T02:46:39.616Z,16.94
2023-02-16T02:49:06.021Z,16.92
2023-02-16T02:51:33.854Z,16.92
2023-02-16T02:54:25.294Z,16.90
2023-02-16T02:57:22.865Z,16.87
2023-02-16T03:00:11.758Z,16.87
2023-02-16T03:02:40.595Z,16.86
2023-02-16T03:05:08.661Z,16.84
2023-02-16T03:07:49.444Z,16.83
2023-02-16T03:10:36.507Z,16.82
2023-02-16T03:13:04.118Z,16.81
2023-02-16T03:15:31.410Z,16.80
2023-02-16T03:18:17.233Z,16.78
2023-02-16T03:21:04.285Z,16.78
2023-02-16T03:23:50.407Z,16.77
2023-02-16T03:26:35.810Z,16.76
2023-02-16T03:29:22.692Z,16.75
2023-02-16T03:31:50.374Z,16.75
2023-02-16T03:34:18.036Z,16.74
2023-02-16T03:36:45.972Z,16.73
2023-02-16T03:39:12.685Z,16.73
2023-02-16T03:41:43.927Z,16.70
2023-02-16T03:44:10.483Z,16.70
2023-02-16T03:46:37.126Z,16.71
2023-02-16T03:49:03.913Z,16.71
2023-02-16T03:51:30.330Z,16.69
2023-02-16T03:53:56.769Z,16.69
2023-02-16T03:56:23.307Z,16.69
2023-02-16T03:58:49.717Z,16.68
2023-02-16T04:01:16.205Z,16.68
2023-02-16T04:03:42.702Z,16.67
2023-02-16T04:06:09.090Z,16.65
2023-02-16T04:08:35.649Z,16.65
2023-02-16T04:11:22.057Z,16.65
2023-02-16T04:13:48.392Z,16.63
2023-02-16T04:16:15.079Z,16.62
2023-02-16T04:18:41.548Z,16.61
2023-02-16T04:21:07.951Z,16.60
2023-02-16T04:23:34.304Z,16.60
2023-02-16T04:26:00.683Z,16.59
2023-02-16T04:28:27.163Z,16.58
2023-02-16T04:30:53.575Z,16.58
2023-02-16T04:33:20.082Z,16.59
2023-02-16T04:35:46.590Z,16.59
2023-02-16T04:38:12.973Z,16.59
2023-02-16T04:40:39.394Z,16.59
2023-02-16T04:43:05.794Z,16.59
2023-02-16T04:45:32.622Z,16.58
2023-02-16T04:47:59.138Z,16.58
2023-02-16T04:50:25.566Z,16.58
2023-02-16T04:52:52.000Z,16.57
2023-02-16T04:55:18.461Z,16.57
2023-02-16T04:57:44.800Z,16.57
2023-02-16T05:00:14.098Z,16.57
2023-02-16T05:02:40.536Z,16.57
2023-02-16T05:05:07.198Z,16.56
2023-02-16T05:07:33.580Z,16.57
2023-02-16T05:09:59.956Z,16.56
2023-02-16T05:12:44.915Z,16.57
2023-02-16T05:15:11.312Z,16.55
2023-02-16T05:17:37.690Z,16.56
2023-02-16T05:20:04.185Z,16.55
2023-02-16T05:22:33.581Z,16.57
2023-02-16T05:25:00.554Z,16.59
2023-02-16T05:27:28.088Z,16.59
2023-02-16T05:29:54.976Z,16.61
2023-02-16T05:32:21.708Z,16.61
2023-02-16T05:34:48.227Z,16.62
2023-02-16T05:37:15.537Z,16.63
2023-02-16T05:39:42.983Z,16.67
2023-02-16T05:42:09.840Z,16.69
2023-02-16T05:44:36.782Z,16.69
2023-02-16T05:47:03.389Z,16.72
2023-02-16T05:49:29.913Z,16.72
2023-02-16T05:51:56.408Z,16.74
2023-02-16T05:54:22.950Z,16.75
2023-02-16T05:56:50.911Z,16.74
2023-02-16T05:59:17.783Z,16.74
2023-02-16T06:01:48.657Z,16.75
2023-02-16T06:04:17.655Z,16.76
2023-02-16T06:06:44.260Z,16.76
2023-02-16T06:09:11.026Z,16.78
2023-02-16T06:11:37.528Z,16.77
2023-02-16T06:14:08.672Z,16.77
2023-02-16T06:16:35.546Z,16.76
2023-02-16T06:19:02.350Z,16.77
2023-02-16T06:21:29.218Z,16.77
2023-02-16T06:23:55.621Z,16.76
2023-02-16T06:26:22.446Z,16.79
2023-02-16T06:28:49.023Z,16.82
2023-02-16T06:31:15.700Z,16.87
2023-02-16T06:33:43.367Z,16.91
2023-02-16T06:36:10.233Z,16.95
2023-02-16T06:38:36.663Z,16.98
2023-02-16T06:41:03.615Z,17.02
2023-02-16T06:43:30.955Z,17.04
2023-02-16T06:45:57.829Z,17.05
2023-02-16T06:48:24.268Z,17.07
2023-02-16T06:50:50.772Z,17.10
2023-02-16T06:53:17.294Z,17.13
2023-02-16T06:55:43.771Z,17.15
2023-02-16T06:58:10.704Z,17.17
2023-02-16T07:00:37.222Z,17.20
2023-02-16T07:03:03.842Z,17.27
2023-02-16T07:05:30.308Z,17.31
2023-02-16T07:07:56.745Z,17.39
2023-02-16T07:10:23.192Z,17.43
2023-02-16T07:12:49.690Z,17.44
2023-02-16T07:15:16.231Z,17.46
2023-02-16T07:17:42.733Z,17.50
2023-02-16T07:20:09.262Z,17.50
2023-02-16T07:22:35.726Z,17.46
2023-02-16T07:25:02.210Z,17.42
2023-02-16T07:27:28.842Z,17.37
2023-02-16T07:29:55.574Z,17.33
2023-02-16T07:32:22.055Z,17.32
2023-02-16T07:34:48.576Z,17.30
2023-02-16T07:37:15.141Z,17.26
2023-02-16T07:39:41.663Z,17.23
2023-02-16T07:42:08.070Z,17.20
2023-02-16T07:44:34.517Z,17.16
2023-02-16T07:47:00.898Z,17.14
2023-02-16T07:49:27.284Z,17.12
2023-02-16T07:51:53.735Z,17.10
2023-02-16T07:54:20.125Z,17.08
2023-02-16T07:56:47.072Z,17.07
2023-02-16T07:59:15.403Z,17.06
2023-02-16T08:01:42.510Z,17.05
2023-02-16T08:04:09.083Z,17.04
2023-02-16T08:06:35.707Z,17.06
2023-02-16T08:09:02.148Z,17.07
2023-02-16T08:11:28.601Z,17.09
2023-02-16T08:13:55.079Z,17.11
2023-02-16T08:16:23.007Z,17.12
2023-02-16T08:18:50.820Z,17.13
2023-02-16T08:21:18.958Z,17.17
2023-02-16T08:23:49.317Z,17.20
2023-02-16T08:26:17.281Z,17.24
2023-02-16T08:28:46.051Z,17.28
2023-02-16T08:31:17.076Z,17.33
2023-02-16T08:33:43.981Z,17.36
2023-02-16T08:36:32.378Z,17.41
2023-02-16T08:38:59.367Z,17.46
2023-02-16T08:41:28.975Z,17.49
2023-02-16T08:43:55.555Z,17.55
2023-02-16T08:46:23.000Z,17.59
2023-02-16T08:48:49.779Z,17.64
2023-02-16T08:51:18.456Z,17.66
2023-02-16T08:53:46.369Z,17.72
2023-02-16T08:56:13.390Z,17.76
2023-02-16T08:58:40.049Z,17.79
2023-02-16T09:01:08.225Z,17.82
2023-02-16T09:03:35.756Z,17.87
2023-02-16T09:06:03.693Z,17.90
2023-02-16T09:08:31.236Z,17.92
2023-02-16T09:11:01.230Z,17.96
2023-02-16T09:13:27.832Z,18.01
2023-02-16T09:15:54.230Z,18.02
2023-02-16T09:18:20.823Z,18.06
2023-02-16T09:20:47.297Z,18.07
2023-02-16T09:23:15.523Z,18.13
2023-02-16T09:25:42.116Z,18.15
2023-02-16T09:28:11.569Z,18.21
2023-02-16T09:30:38.384Z,18.22
2023-02-16T09:33:04.940Z,18.26
2023-02-16T09:35:31.837Z,18.28
2023-02-16T09:37:58.320Z,18.31
2023-02-16T09:40:24.751Z,18.34
2023-02-16T09:43:04.875Z,18.35
2023-02-16T09:45:35.235Z,18.39
2023-02-16T09:48:02.023Z,18.43
2023-02-16T09:50:53.878Z,18.43
2023-02-16T09:53:22.549Z,18.47
2023-02-16T09:55:48.914Z,18.50
2023-02-16T09:58:19.171Z,18.52
2023-02-16T10:00:51.290Z,18.55
2023-02-16T10:03:25.290Z,18.56
2023-02-16T10:05:52.002Z,18.59
2023-02-16T10:08:24.947Z,18.60
2023-02-16T10:11:07.520Z,18.63
2023-02-16T10:13:37.010Z,18.64
2023-02-16T10:16:06.909Z,18.67
2023-02-16T10:18:35.519Z,18.69
2023-02-16T10:21:03.838Z,18.70
2023-02-16T10:23:39.529Z,18.70
2023-02-16T10:26:24.654Z,18.73
2023-02-16T10:28:56.724Z,18.74
2023-02-16T10:31:23.161Z,18.76
2023-02-16T10:34:08.895Z,18.77
2023-02-16T10:36:41.347Z,18.78
2023-02-16T10:39:16.267Z,18.79
2023-02-16T10:41:45.721Z,18.83
2023-02-16T10:44:28.661Z,18.83
2023-02-16T10:46:57.484Z,18.84
2023-02-16T10:49:24.680Z,18.86
2023-02-16T10:51:53.597Z,18.86
2023-02-16T10:54:27.209Z,18.87
2023-02-16T10:57:06.748Z,18.88
2023-02-16T10:59:39.142Z,18.89
2023-02-16T11:02:25.725Z,18.90
2023-02-16T11:04:53.199Z,18.91
2023-02-16T11:07:21.022Z,18.92
2023-02-16T11:09:48.580Z,18.92
2023-02-16T11:12:16.929Z,18.92
2023-02-16T11:14:48.777Z,18.92
2023-02-16T11:17:16.688Z,18.94
2023-02-16T11:19:52.502Z,18.94
2023-02-16T11:22:31.372Z,18.94
2023-02-16T11:25:13.099Z,18.95
2023-02-16T11:27:49.000Z,18.95
2023-02-16T11:30:23.410Z,18.95
2023-02-16T11:32:51.381Z,18.95
2023-02-16T11:35:17.930Z,18.96
2023-02-16T11:37:44.622Z,18.96
2023-02-16T11:40:27.514Z,18.95
2023-02-16T11:42:56.055Z,18.96
2023-02-16T11:45:31.678Z,18.96
2023-02-16T11:48:14.540Z,18.95
2023-02-16T11:50:55.794Z,18.95
2023-02-16T11:53:30.778Z,18.94
2023-02-16T11:56:12.901Z,18.94
2023-02-16T11:58:39.816Z,18.95
2023-02-16T12:01:12.636Z,18.93
2023-02-16T12:03:59.846Z,18.94
2023-02-16T12:06:29.114Z,18.94
2023-02-16T12:09:13.721Z,18.96
2023-02-16T12:11:55.495Z,18.95
2023-02-16T12:14:36.469Z,18.95
2023-02-16T12:17:09.136Z,18.96
2023-02-16T12:19:54.301Z,18.95
2023-02-16T12:22:26.388Z,18.95
2023-02-16T12:24:58.726Z,18.96
2023-02-16T12:27:31.304Z,18.96
2023-02-16T12:30:24.225Z,18.96
2023-02-16T12:32:51.260Z,18.96
2023-02-16T12:35:36.663Z,18.97
2023-02-16T12:38:03.626Z,18.97
2023-02-16T12:40:30.166Z,18.98
2023-02-16T12:43:22.637Z,18.98
2023-02-16T12:45:49.948Z,18.98
2023-02-16T12:48:36.403Z,18.97
2023-02-16T12:51:06.968Z,18.96
2023-02-16T12:53:44.000Z,18.97
2023-02-16T12:56:17.716Z,18.98
2023-02-16T12:58:46.569Z,18.98
2023-02-16T13:01:18.025Z,18.98
2023-02-16T13:03:50.704Z,18.99
2023-02-16T13:06:25.062Z,18.99
2023-02-16T13:08:55.944Z,18.98
2023-02-16T13:11:25.811Z,18.98
2023-02-16T13:13:53.620Z,18.97
2023-02-16T13:16:30.569Z,18.98
2023-02-16T13:18:57.873Z,18.97
2023-02-16T13:21:50.898Z,18.97
2023-02-16T13:24:37.604Z,18.97
2023-02-16T13:27:07.225Z,18.95
2023-02-16T13:29:52.751Z,18.96
2023-02-16T13:32:39.565Z,18.91
2023-02-16T13:35:30.076Z,18.95
2023-02-16T13:37:59.492Z,18.95
2023-02-16T13:40:44.904Z,18.95
2023-02-16T13:43:30.903Z,18.93
2023-02-16T13:45:58.291Z,18.92
2023-02-16T13:48:27.283Z,18.91
2023-02-16T13:51:05.163Z,18.90
2023-02-16T13:53:39.249Z,18.89
2023-02-16T13:56:13.349Z,18.88
2023-02-16T13:58:40.789Z,18.87
2023-02-16T14:01:26.064Z,18.87
2023-02-16T14:03:53.011Z,18.87
2023-02-16T14:06:28.460Z,18.88
2023-02-16T14:09:13.134Z,18.85
2023-02-16T14:11:59.474Z,18.87
2023-02-16T14:14:29.283Z,18.86
2023-02-16T14:16:55.751Z,18.85
2023-02-16T14:19:24.864Z,18.84
2023-02-16T14:21:51.827Z,18.84
2023-02-16T14:24:24.500Z,18.82
2023-02-16T14:26:59.163Z,18.83
2023-02-16T14:29:30.997Z,18.86
2023-02-16T14:32:00.231Z,18.91
2023-02-16T14:34:36.636Z,18.93
2023-02-16T14:37:16.172Z,18.95
2023-02-16T14:40:06.439Z,18.97
2023-02-16T14:42:34.899Z,18.98
2023-02-16T14:45:05.966Z,18.99
2023-02-16T14:47:52.794Z,18.99
2023-02-16T14:50:44.448Z,19.01
2023-02-16T14:53:19.990Z,19.00
2023-02-16T14:55:46.704Z,19.01
2023-02-16T14:58:22.213Z,19.02
2023-02-16T15:00:52.215Z,19.04
2023-02-16T15:03:18.798Z,19.05
2023-02-16T15:05:51.273Z,19.05
2023-02-16T15:08:22.516Z,19.06
2023-02-16T15:10:53.994Z,19.07
2023-02-16T15:13:21.953Z,19.08
2023-02-16T15:15:50.657Z,19.07
2023-02-16T15:18:22.122Z,19.08
2023-02-16T15:20:51.096Z,19.08
2023-02-16T15:23:19.687Z,19.09
2023-02-16T15:25:54.520Z,19.10
2023-02-16T15:28:22.435Z,19.10
2023-02-16T15:31:06.023Z,19.10
2023-02-16T15:33:36.379Z,19.10
2023-02-16T15:36:14.301Z,19.11
2023-02-16T15:38:43.348Z,19.12
2023-02-16T15:41:13.371Z,19.12
2023-02-16T15:43:50.079Z,19.12
2023-02-16T15:46:30.585Z,19.14
2023-02-16T15:48:57.170Z,19.16
2023-02-16T15:51:34.171Z,19.18
2023-02-16T15:54:05.589Z,19.21
2023-02-16T15:56:47.183Z,19.22
2023-02-16T15:59:35.524Z,19.25
2023-02-16T16:02:19.587Z,19.27
2023-02-16T16:04:48.794Z,19.28
2023-02-16T16:07:18.330Z,19.29
2023-02-16T16:09:45.881Z,19.30
2023-02-16T16:12:14.381Z,19.32
2023-02-16T16:14:45.258Z,19.34
2023-02-16T16:17:13.720Z,19.34
2023-02-16T16:19:40.459Z,19.36
2023-02-16T16:22:36.521Z,19.37
2023-02-16T16:25:23.487Z,19.38
2023-02-16T16:27:49.877Z,19.39
2023-02-16T16:30:27.978Z,19.39
2023-02-16T16:33:00.618Z,19.39
2023-02-16T16:35:47.604Z,19.40
2023-02-16T16:38:27.653Z,19.41
2023-02-16T16:40:56.008Z,19.42
2023-02-16T16:43:26.671Z,19.42
2023-02-16T16:46:10.306Z,19.44
2023-02-16T16:48:37.310Z,19.44
2023-02-16T16:51:12.255Z,19.44
2023-02-16T16:53:38.611Z,19.44
2023-02-16T16:56:09.294Z,19.45
2023-02-16T16:58:35.793Z,19.45
2023-02-16T17:01:02.868Z,19.45
2023-02-16T17:03:30.585Z,19.47
2023-02-16T17:05:57.769Z,19.46
2023-02-16T17:08:24.247Z,19.48
2023-02-16T17:10:50.721Z,19.47
2023-02-16T17:13:20.060Z,19.48
2023-02-16T17:15:55.393Z,19.47
2023-02-16T17:18:22.509Z,19.47
2023-02-16T17:20:49.883Z,19.46
2023-02-16T17:23:17.508Z,19.47
2023-02-16T17:25:44.297Z,19.48
2023-02-16T17:28:11.826Z,19.48
2023-02-16T17:30:38.399Z,19.48
2023-02-16T17:33:04.992Z,19.48
2023-02-16T17:35:31.670Z,19.50
2023-02-16T17:37:58.106Z,19.49
2023-02-16T17:40:24.880Z,19.50
2023-02-16T17:42:51.447Z,19.48
2023-02-16T17:45:19.251Z,19.50
2023-02-16T17:47:50.290Z,19.50
2023-02-16T17:50:17.335Z,19.49
2023-02-16T17:52:44.527Z,19.50
2023-02-16T17:55:11.638Z,19.50
2023-02-16T17:57:38.106Z,19.50
2023-02-16T18:00:06.056Z,19.50
2023-02-16T18:02:32.500Z,19.51
2023-02-16T18:04:59.103Z,19.49
2023-02-16T18:07:25.535Z,19.50
2023-02-16T18:09:52.091Z,19.50
2023-02-16T18:12:18.742Z,19.50
2023-02-16T18:14:45.745Z,19.50
2023-02-16T18:17:12.670Z,19.48
2023-02-16T18:19:39.179Z,19.47
2023-02-16T18:22:05.600Z,19.47
2023-02-16T18:24:32.154Z,19.46
2023-02-16T18:26:58.567Z,19.46
2023-02-16T18:29:25.101Z,19.46
2023-02-16T18:31:51.606Z,19.46
2023-02-16T18:34:18.222Z,19.44
2023-02-16T18:36:45.653Z,19.44
2023-02-16T18:39:12.178Z,19.43
2023-02-16T18:41:38.644Z,19.43
2023-02-16T18:44:07.155Z,19.42
2023-02-16T18:46:33.671Z,19.42
2023-02-16T18:49:00.234Z,19.41
2023-02-16T18:51:29.341Z,19.40
2023-02-16T18:53:56.705Z,19.40
2023-02-16T18:56:23.178Z,19.41
2023-02-16T18:58:49.588Z,19.40
2023-02-16T19:01:22.018Z,19.38
2023-02-16T19:03:48.534Z,19.39
2023-02-16T19:06:15.069Z,19.39
2023-02-16T19:08:41.631Z,19.38
2023-02-16T19:11:08.110Z,19.37
2023-02-16T19:13:34.489Z,19.37
2023-02-16T19:16:00.876Z,19.37
2023-02-16T19:18:29.206Z,19.36
2023-02-16T19:20:55.642Z,19.37
2023-02-16T19:23:22.057Z,19.37
2023-02-16T19:25:48.461Z,19.35
2023-02-16T19:28:14.865Z,19.36
2023-02-16T19:30:41.485Z,19.36
2023-02-16T19:33:07.951Z,19.35
2023-02-16T19:35:34.346Z,19.35
2023-02-16T19:38:00.984Z,19.35
2023-02-16T19:40:27.534Z,19.36
2023-02-16T19:42:54.019Z,19.35
2023-02-16T19:45:20.727Z,19.35
2023-02-16T19:47:49.415Z,19.33
2023-02-16T19:50:15.870Z,19.35
2023-02-16T19:52:42.275Z,19.34
2023-02-16T19:55:10.631Z,19.34
2023-02-16T19:57:37.919Z,19.34
2023-02-16T20:00:05.695Z,19.33
2023-02-16T20:02:32.156Z,19.33
2023-02-16T20:04:58.539Z,19.33
2023-02-16T20:07:24.938Z,19.32
2023-02-16T20:09:51.382Z,19.32
2023-02-16T20:12:17.947Z,19.32
2023-02-16T20:14:44.368Z,19.30
2023-02-16T20:17:10.987Z,19.31
2023-02-16T20:19:37.509Z,19.32
2023-02-16T20:22:03.983Z,19.31
2023-02-16T20:24:30.434Z,19.32
2023-02-16T20:26:57.061Z,19.31
2023-02-16T20:29:23.511Z,19.31
2023-02-16T20:31:52.449Z,19.31
2023-02-16T20:34:19.347Z,19.30
2023-02-16T20:36:45.765Z,19.31
2023-02-16T20:39:12.274Z,19.31
2023-02-16T20:41:38.832Z,19.31
2023-02-16T20:44:05.463Z,19.30
2023-02-16T20:46:32.346Z,19.30
2023-02-16T20:48:58.871Z,19.30
2023-02-16T20:51:25.432Z,19.31
2023-02-16T20:53:51.943Z,19.30
2023-02-16T20:56:22.561Z,19.30
2023-02-16T20:58:50.069Z,19.30
2023-02-16T21:01:22.249Z,19.30
2023-02-16T21:03:48.926Z,19.29
2023-02-16T21:06:15.728Z,19.29
2023-02-16T21:08:42.445Z,19.30
2023-02-16T21:11:08.934Z,19.29
2023-02-16T21:13:36.531Z,19.29
2023-02-16T21:16:03.752Z,19.30
2023-02-16T21:18:30.420Z,19.29
2023-02-16T21:20:58.499Z,19.29
2023-02-16T21:23:24.926Z,19.29
2023-02-16T21:25:51.451Z,19.29
2023-02-16T21:28:18.043Z,19.29
2023-02-16T21:30:44.465Z,19.29
2023-02-16T21:33:10.922Z,19.29
2023-02-16T21:35:37.392Z,19.28
2023-02-16T21:38:04.543Z,19.29
2023-02-16T21:40:49.734Z,19.28
2023-02-16T21:43:17.185Z,19.28
2023-02-16T21:45:43.805Z,19.28
2023-02-16T21:48:30.112Z,19.29
2023-02-16T21:50:56.798Z,19.29
2023-02-16T21:53:23.226Z,19.29
2023-02-16T21:56:08.436Z,19.29
2023-02-16T21:58:35.044Z,19.29
2023-02-16T22:01:01.631Z,19.28
2023-02-16T22:03:28.200Z,19.28
2023-02-16T22:05:54.692Z,19.29
2023-02-16T22:08:21.158Z,19.28
2023-02-16T22:10:47.815Z,19.29
2023-02-16T22:13:14.314Z,19.28
2023-02-16T22:15:40.682Z,19.29
2023-02-16T22:18:07.262Z,19.29
2023-02-16T22:20:33.787Z,19.29
2023-02-16T22:23:00.247Z,19.28
2023-02-16T22:25:26.763Z,19.28
2023-02-16T22:27:53.170Z,19.28
2023-02-16T22:30:19.688Z,19.29
2023-02-16T22:32:46.245Z,19.29
2023-02-16T22:35:12.764Z,19.28
2023-02-16T22:37:39.284Z,19.25
2023-02-16T22:40:06.051Z,19.26
2023-02-16T22:42:32.736Z,19.27
2023-02-16T22:44:59.145Z,19.26
2023-02-16T22:47:25.493Z,19.25
2023-02-16T22:49:51.893Z,19.23
2023-02-16T22:52:18.353Z,19.20
2023-02-16T22:54:44.872Z,19.18
2023-02-16T22:57:19.135Z,19.17
2023-02-16T22:59:46.597Z,19.14
2023-02-16T23:02:13.022Z,19.13
2023-02-16T23:04:41.194Z,19.10
2023-02-16T23:07:08.759Z,19.09
2023-02-16T23:09:35.286Z,19.06
2023-02-16T23:12:02.105Z,19.05
2023-02-16T23:14:29.319Z,19.00
2023-02-16T23:16:55.831Z,19.03
2023-02-16T23:19:23.240Z,19.01
2023-02-16T23:21:50.024Z,19.00
2023-02-16T23:24:18.212Z,18.97
2023-02-16T23:26:44.730Z,18.97
2023-02-16T23:29:11.173Z,18.95
2023-02-16T23:31:38.903Z,18.94
2023-02-16T23:34:05.975Z,18.93
2023-02-16T23:36:33.091Z,18.91
2023-02-16T23:39:03.129Z,18.88
2023-02-16T23:41:29.538Z,18.87
2023-02-16T23:43:56.524Z,18.89
2023-02-16T23:46:23.322Z,18.88
2023-02-16T23:48:49.998Z,18.88
2023-02-16T23:51:16.461Z,18.85
2023-02-16T23:53:43.024Z,18.86
2023-02-16T23:56:13.082Z,18.85
2023-02-16T23:58:45.169Z,18.84
